Time;durP1;ratioP1;P1;durP2;ratioP2;P2;SDS_P1;SDS_P2;PMS_P1;PMS_P2;Temp;Humidity;BMP_temperature;BMP_pressure;BME280_temperature;BME280_humidity;BME280_pressure;Samples;Min_cycle;Max_cycle;Signal;HPM_P1;HPM_P2
2024/03/31 00:00:46;;;;;;;13.70;8.55;;;;;;;;;;5064813;28;20213;-72
2024/03/31 00:03:11;;;;;;;12.95;8.82;;;;;;;;;;5072060;28;20200;-72
2024/03/31 00:05:36;;;;;;;11.93;8.82;;;;;;;;;;5083826;28;20290;-72
2024/03/31 00:08:02;;;;;;;10.80;8.13;;;;;;;;;;5075826;28;20235;-72
2024/03/31 00:10:28;;;;;;;13.13;9.38;;;;;;;;;;5081600;28;20215;-72
2024/03/31 00:12:53;;;;;;;15.02;10.18;;;;;;;;;;5081626;28;20274;-72
2024/03/31 00:15:18;;;;;;;14.38;10.18;;;;;;;;;;5070992;28;20612;-72
2024/03/31 00:17:44;;;;;;;13.82;10.40;;;;;;;;;;5068388;28;20192;-73
2024/03/31 00:20:09;;;;;;;14.48;11.43;;;;;;;;;;5082776;28;20612;-73
2024/03/31 00:22:35;;;;;;;17.38;11.55;;;;;;;;;;5082833;28;20200;-72
2024/03/31 00:25:00;;;;;;;16.08;11.57;;;;;;;;;;5081784;28;20548;-72
2024/03/31 00:27:26;;;;;;;16.55;11.07;;;;;;;;;;5059203;28;20184;-72
2024/03/31 00:29:51;;;;;;;15.82;11.85;;;;;;;;;;5084912;28;20191;-72
2024/03/31 00:32:16;;;;;;;17.45;12.57;;;;;;;;;;5085774;28;20596;-72
2024/03/31 00:34:42;;;;;;;18.42;13.13;;;;;;;;;;5084220;28;20253;-73
2024/03/31 00:37:07;;;;;;;18.88;14.05;;;;;;;;;;5073534;28;20235;-72
2024/03/31 00:39:33;;;;;;;19.58;13.43;;;;;;;;;;5085828;28;20509;-72
2024/03/31 00:41:58;;;;;;;24.40;16.60;;;;;;;;;;5098905;28;20207;-72
2024/03/31 00:44:23;;;;;;;17.88;13.45;;;;;;;;;;5100944;28;20211;-72
2024/03/31 00:46:49;;;;;;;21.05;14.40;;;;;;;;;;5069871;28;20257;-72
2024/03/31 00:49:14;;;;;;;17.15;12.38;;;;;;;;;;5071807;28;20180;-72
2024/03/31 00:51:40;;;;;;;16.73;12.30;;;;;;;;;;5085318;28;20169;-71
2024/03/31 00:54:06;;;;;;;17.33;12.90;;;;;;;;;;5078909;28;20200;-72
2024/03/31 00:56:31;;;;;;;17.52;12.07;;;;;;;;;;5087951;28;20207;-72
2024/03/31 00:58:57;;;;;;;17.52;12.57;;;;;;;;;;5073208;28;20205;-72
2024/03/31 01:01:22;;;;;;;17.35;11.38;;;;;;;;;;5068780;28;20708;-72
2024/03/31 01:03:48;;;;;;;15.57;11.68;;;;;;;;;;5079470;28;20185;-72
2024/03/31 01:06:18;;;;;;;15.02;10.25;;;;;;;;;;5077336;28;20188;-73
2024/03/31 01:08:44;;;;;;;13.50;9.48;;;;;;;;;;5070539;28;20263;-73
2024/03/31 01:11:09;;;;;;;12.52;8.93;;;;;;;;;;5068845;28;20279;-73
2024/03/31 01:13:35;;;;;;;14.35;10.13;;;;;;;;;;5073539;28;20196;-72
2024/03/31 01:16:01;;;;;;;13.52;10.00;;;;;;;;;;5083235;28;20551;-72
2024/03/31 01:18:27;;;;;;;15.27;10.23;;;;;;;;;;5081254;28;20208;-72
2024/03/31 01:20:53;;;;;;;12.93;9.05;;;;;;;;;;5081229;28;20205;-72
2024/03/31 01:23:23;;;;;;;12.60;9.25;;;;;;;;;;5082069;28;20195;-71
2024/03/31 01:25:48;;;;;;;14.43;9.80;;;;;;;;;;5072688;28;20188;-71
2024/03/31 01:28:13;;;;;;;14.48;10.35;;;;;;;;;;5073132;28;20591;-71
2024/03/31 01:30:39;;;;;;;13.32;10.27;;;;;;;;;;5081092;28;20590;-71
2024/03/31 01:33:04;;;;;;;16.30;10.77;;;;;;;;;;5073437;28;20185;-71
2024/03/31 01:35:30;;;;;;;14.95;10.43;;;;;;;;;;5083813;28;20184;-72
2024/03/31 01:37:55;;;;;;;11.82;8.77;;;;;;;;;;5090507;28;20735;-72
2024/03/31 01:40:20;;;;;;;13.07;9.30;;;;;;;;;;5073337;28;20189;-71
2024/03/31 01:42:47;;;;;;;12.48;8.95;;;;;;;;;;5085255;28;20188;-72
2024/03/31 01:45:16;;;;;;;11.77;8.65;;;;;;;;;;5078240;28;20239;-71
2024/03/31 01:47:41;;;;;;;10.68;8.73;;;;;;;;;;5081277;28;20201;-72
2024/03/31 01:50:07;;;;;;;12.48;8.45;;;;;;;;;;5087190;28;20198;-72
2024/03/31 01:52:32;;;;;;;11.23;8.13;;;;;;;;;;5079975;28;20195;-72
2024/03/31 01:54:58;;;;;;;13.05;9.40;;;;;;;;;;5081949;28;20189;-72
2024/03/31 01:57:24;;;;;;;13.15;8.77;;;;;;;;;;5087942;28;20188;-72
2024/03/31 01:59:49;;;;;;;13.73;8.85;;;;;;;;;;5087676;28;20204;-72
2024/03/31 02:02:15;;;;;;;10.93;8.23;;;;;;;;;;5084634;28;20223;-71
2024/03/31 02:04:40;;;;;;;11.13;8.20;;;;;;;;;;5081830;28;20236;-71
2024/03/31 02:07:05;;;;;;;12.77;8.88;;;;;;;;;;5091292;28;20618;-71
2024/03/31 02:09:31;;;;;;;13.77;9.50;;;;;;;;;;5091019;28;20255;-72
2024/03/31 02:11:56;;;;;;;15.27;9.85;;;;;;;;;;5089334;28;20403;-71
2024/03/31 02:14:21;;;;;;;15.00;9.60;;;;;;;;;;5076548;28;20181;-72
2024/03/31 02:16:48;;;;;;;14.35;9.82;;;;;;;;;;5081400;28;20199;-71
2024/03/31 02:19:13;;;;;;;13.80;9.07;;;;;;;;;;5089853;28;20255;-71
2024/03/31 02:21:38;;;;;;;11.77;8.82;;;;;;;;;;5082617;28;20196;-71
2024/03/31 02:24:04;;;;;;;16.13;9.80;;;;;;;;;;5062356;28;20207;-71
2024/03/31 02:26:30;;;;;;;12.23;8.98;;;;;;;;;;5083241;28;20196;-72
2024/03/31 02:28:55;;;;;;;15.07;9.52;;;;;;;;;;5080511;28;20196;-72
2024/03/31 02:31:21;;;;;;;12.63;9.27;;;;;;;;;;5081737;28;20539;-71
2024/03/31 02:33:46;;;;;;;15.55;10.27;;;;;;;;;;5079121;28;20682;-72
2024/03/31 02:36:12;;;;;;;13.88;9.55;;;;;;;;;;5082130;28;20267;-71
2024/03/31 02:38:38;;;;;;;12.50;9.55;;;;;;;;;;5057761;28;20273;-71
2024/03/31 02:41:03;;;;;;;11.90;9.23;;;;;;;;;;5086157;28;20345;-71
2024/03/31 02:43:29;;;;;;;13.77;9.30;;;;;;;;;;5072420;28;20258;-72
2024/03/31 02:45:54;;;;;;;11.80;8.77;;;;;;;;;;5085026;28;20639;-72
2024/03/31 02:48:19;;;;;;;12.52;9.55;;;;;;;;;;5073818;28;20196;-71
2024/03/31 02:50:48;;;;;;;12.07;9.40;;;;;;;;;;5072635;28;20196;-71
2024/03/31 02:53:14;;;;;;;10.98;8.55;;;;;;;;;;5071084;28;20185;-71
2024/03/31 02:55:39;;;;;;;10.45;8.70;;;;;;;;;;5087130;28;20211;-72
2024/03/31 02:58:05;;;;;;;11.63;8.83;;;;;;;;;;5081308;28;20294;-72
2024/03/31 03:00:30;;;;;;;12.27;9.00;;;;;;;;;;5073699;28;20206;-72
2024/03/31 03:02:55;;;;;;;15.57;9.55;;;;;;;;;;5083496;28;20203;-72
2024/03/31 03:05:21;;;;;;;11.95;9.43;;;;;;;;;;5069438;28;20180;-71
2024/03/31 03:07:46;;;;;;;11.45;9.40;;;;;;;;;;5069091;28;20234;-71
2024/03/31 03:10:12;;;;;;;11.57;8.83;;;;;;;;;;5087161;28;20184;-72
2024/03/31 03:12:37;;;;;;;11.60;8.93;;;;;;;;;;5068276;28;20648;-71
2024/03/31 03:15:03;;;;;;;10.18;7.80;;;;;;;;;;5070078;28;20193;-71
2024/03/31 03:17:29;;;;;;;11.73;8.60;;;;;;;;;;5083380;28;20272;-72
2024/03/31 03:19:54;;;;;;;13.07;9.80;;;;;;;;;;5071791;28;20277;-71
2024/03/31 03:22:19;;;;;;;11.48;8.68;;;;;;;;;;5082616;28;20204;-71
2024/03/31 03:24:45;;;;;;;11.30;10.10;;;;;;;;;;5069803;28;20189;-71
2024/03/31 03:27:11;;;;;;;12.05;10.20;;;;;;;;;;5068196;28;20180;-71
2024/03/31 03:29:36;;;;;;;12.73;9.98;;;;;;;;;;5084724;28;20188;-71
2024/03/31 03:32:02;;;;;;;13.30;11.20;;;;;;;;;;5082058;28;20752;-71
2024/03/31 03:34:27;;;;;;;13.82;10.45;;;;;;;;;;5077906;28;20277;-71
2024/03/31 03:36:52;;;;;;;16.13;11.85;;;;;;;;;;5070226;28;20200;-71
2024/03/31 03:39:18;;;;;;;13.90;10.52;;;;;;;;;;5081998;28;20199;-71
2024/03/31 03:41:44;;;;;;;13.85;10.13;;;;;;;;;;5068754;28;20220;-71
2024/03/31 03:44:10;;;;;;;15.48;10.48;;;;;;;;;;5069662;28;20196;-71
2024/03/31 03:46:35;;;;;;;17.40;11.43;;;;;;;;;;5084546;28;20205;-71
2024/03/31 03:49:01;;;;;;;10.98;8.95;;;;;;;;;;5070303;28;20723;-71
2024/03/31 03:51:26;;;;;;;13.38;9.77;;;;;;;;;;5083790;28;20189;-71
2024/03/31 03:53:51;;;;;;;13.93;10.70;;;;;;;;;;5071086;28;20208;-71
2024/03/31 03:56:17;;;;;;;14.27;11.32;;;;;;;;;;5074942;28;20212;-71
2024/03/31 03:58:44;;;;;;;14.45;10.88;;;;;;;;;;5089684;28;20190;-71
2024/03/31 04:01:10;;;;;;;15.20;11.27;;;;;;;;;;5086285;28;20265;-71
2024/03/31 04:03:35;;;;;;;16.02;11.82;;;;;;;;;;5081749;28;20197;-71
2024/03/31 04:06:01;;;;;;;17.90;13.15;;;;;;;;;;5086436;28;20187;-71
2024/03/31 04:08:26;;;;;;;17.48;12.63;;;;;;;;;;5068104;28;20678;-71
2024/03/31 04:10:51;;;;;;;17.52;13.30;;;;;;;;;;5082885;28;20216;-72
2024/03/31 04:13:17;;;;;;;19.50;13.68;;;;;;;;;;5081428;28;20207;-71
2024/03/31 04:15:42;;;;;;;21.52;15.07;;;;;;;;;;5088170;28;20193;-71
2024/03/31 04:18:08;;;;;;;19.50;14.73;;;;;;;;;;5089458;28;20209;-71
2024/03/31 04:20:40;;;;;;;21.42;14.55;;;;;;;;;;5088111;28;20197;-71
2024/03/31 04:23:05;;;;;;;21.95;14.15;;;;;;;;;;5081152;28;20192;-71
2024/03/31 04:25:31;;;;;;;23.38;16.73;;;;;;;;;;5074930;28;20188;-71
2024/03/31 04:27:56;;;;;;;24.85;16.45;;;;;;;;;;5058797;28;20549;-71
2024/03/31 04:30:21;;;;;;;27.95;17.95;;;;;;;;;;5088889;28;20655;-71
2024/03/31 04:32:47;;;;;;;28.80;17.55;;;;;;;;;;5085470;28;20504;-72
2024/03/31 04:35:12;;;;;;;40.38;20.60;;;;;;;;;;5089375;28;20199;-72
2024/03/31 04:37:38;;;;;;;40.70;21.58;;;;;;;;;;5086084;28;20230;-72
2024/03/31 04:40:04;;;;;;;47.47;21.95;;;;;;;;;;5084818;28;20206;-72
2024/03/31 04:42:29;;;;;;;47.20;22.75;;;;;;;;;;5079104;28;20274;-72
2024/03/31 04:44:54;;;;;;;49.17;23.48;;;;;;;;;;5080722;28;20269;-72
2024/03/31 04:47:21;;;;;;;57.10;25.52;;;;;;;;;;5088315;28;20195;-72
2024/03/31 04:49:47;;;;;;;58.10;25.42;;;;;;;;;;5092622;28;20190;-72
2024/03/31 04:52:12;;;;;;;56.88;26.80;;;;;;;;;;5068896;28;20188;-72
2024/03/31 04:54:38;;;;;;;63.22;27.02;;;;;;;;;;5073192;28;20184;-72
2024/03/31 04:57:03;;;;;;;55.40;26.10;;;;;;;;;;5079226;28;20188;-72
2024/03/31 04:59:29;;;;;;;52.50;25.10;;;;;;;;;;5072306;28;20603;-72
2024/03/31 05:01:54;;;;;;;61.15;27.00;;;;;;;;;;5073034;28;20268;-72
2024/03/31 05:04:19;;;;;;;59.17;27.45;;;;;;;;;;5083244;28;20265;-73
2024/03/31 05:06:46;;;;;;;57.28;25.67;;;;;;;;;;5076364;28;20193;-73
2024/03/31 05:09:12;;;;;;;61.45;27.08;;;;;;;;;;5080244;28;20644;-72
2024/03/31 05:11:37;;;;;;;61.22;28.08;;;;;;;;;;5081980;28;20182;-72
2024/03/31 05:14:03;;;;;;;64.20;26.42;;;;;;;;;;5085429;28;20187;-73
2024/03/31 05:16:28;;;;;;;54.35;25.77;;;;;;;;;;5089695;28;20553;-73
2024/03/31 05:18:54;;;;;;;56.00;26.90;;;;;;;;;;5073939;28;20610;-73
2024/03/31 05:21:20;;;;;;;59.03;27.52;;;;;;;;;;5082902;28;20633;-73
2024/03/31 05:23:46;;;;;;;52.42;26.05;;;;;;;;;;5080265;28;20401;-73
2024/03/31 05:26:13;;;;;;;56.03;26.77;;;;;;;;;;5068467;28;20180;-73
2024/03/31 05:28:38;;;;;;;54.17;25.98;;;;;;;;;;5081361;28;20200;-73
2024/03/31 05:31:04;;;;;;;49.10;25.15;;;;;;;;;;5075224;28;20234;-73
2024/03/31 05:33:30;;;;;;;50.42;24.45;;;;;;;;;;5086968;28;20191;-73
2024/03/31 05:35:56;;;;;;;44.20;24.27;;;;;;;;;;5085962;28;20894;-73
2024/03/31 05:38:21;;;;;;;44.88;24.05;;;;;;;;;;5074893;28;20230;-73
2024/03/31 05:40:47;;;;;;;45.03;24.33;;;;;;;;;;5089786;28;20245;-73
2024/03/31 05:43:13;;;;;;;38.03;22.60;;;;;;;;;;5088018;28;20515;-73
2024/03/31 05:45:40;;;;;;;40.17;23.33;;;;;;;;;;5079319;28;20184;-73
2024/03/31 05:48:10;;;;;;;35.70;22.02;;;;;;;;;;5093053;28;20709;-73
2024/03/31 05:50:36;;;;;;;40.83;23.00;;;;;;;;;;5080036;28;20220;-73
2024/03/31 05:53:01;;;;;;;35.22;21.95;;;;;;;;;;5090066;28;20543;-73
2024/03/31 05:55:28;;;;;;;39.15;23.30;;;;;;;;;;5090587;28;20198;-72
2024/03/31 05:57:54;;;;;;;37.88;22.60;;;;;;;;;;5089324;28;20192;-72
2024/03/31 06:00:20;;;;;;;33.80;23.13;;;;;;;;;;5089197;28;20263;-72
2024/03/31 06:02:45;;;;;;;34.85;22.30;;;;;;;;;;5092792;28;20738;-72
2024/03/31 06:05:11;;;;;;;37.80;23.20;;;;;;;;;;5077927;28;20192;-72
2024/03/31 06:07:36;;;;;;;36.45;23.45;;;;;;;;;;5087504;28;20202;-72
2024/03/31 06:10:02;;;;;;;36.55;23.00;;;;;;;;;;5090532;28;20270;-72
2024/03/31 06:12:28;;;;;;;35.50;23.05;;;;;;;;;;5076491;28;20197;-72
2024/03/31 06:14:53;;;;;;;34.05;22.48;;;;;;;;;;5084742;28;20557;-73
2024/03/31 06:17:19;;;;;;;34.25;22.10;;;;;;;;;;5088921;28;20203;-72
2024/03/31 06:19:45;;;;;;;34.13;22.80;;;;;;;;;;5074405;28;20223;-73
2024/03/31 06:22:10;;;;;;;36.80;23.25;;;;;;;;;;5076427;28;20209;-73
2024/03/31 06:24:35;;;;;;;31.25;21.38;;;;;;;;;;5072672;28;20207;-73
2024/03/31 06:27:01;;;;;;;32.60;23.42;;;;;;;;;;5087903;28;20247;-73
2024/03/31 06:29:26;;;;;;;34.15;23.00;;;;;;;;;;5077701;28;20196;-73
2024/03/31 06:31:52;;;;;;;31.15;21.58;;;;;;;;;;5092063;28;20196;-73
2024/03/31 06:34:17;;;;;;;32.85;22.33;;;;;;;;;;5088335;28;20224;-73
2024/03/31 06:36:43;;;;;;;33.03;23.10;;;;;;;;;;5079366;28;20237;-73
2024/03/31 06:39:09;;;;;;;29.48;21.77;;;;;;;;;;5086454;28;20683;-73
2024/03/31 06:41:34;;;;;;;31.38;21.85;;;;;;;;;;5085871;28;20224;-73
2024/03/31 06:44:00;;;;;;;32.85;22.48;;;;;;;;;;5089218;28;20256;-73
2024/03/31 06:46:25;;;;;;;34.53;23.55;;;;;;;;;;5087310;28;20184;-73
2024/03/31 06:48:51;;;;;;;32.72;23.42;;;;;;;;;;5086080;28;20549;-73
2024/03/31 06:51:16;;;;;;;33.70;24.52;;;;;;;;;;5082037;28;20176;-72
2024/03/31 06:53:41;;;;;;;36.90;24.75;;;;;;;;;;5087051;28;20655;-73
2024/03/31 06:56:07;;;;;;;39.72;27.52;;;;;;;;;;5088687;28;20211;-73
2024/03/31 06:58:32;;;;;;;36.13;26.48;;;;;;;;;;5089907;28;20215;-73
2024/03/31 07:01:00;;;;;;;42.28;27.65;;;;;;;;;;5085205;28;20246;-74
2024/03/31 07:03:26;;;;;;;42.05;28.25;;;;;;;;;;5072932;28;20648;-73
2024/03/31 07:05:51;;;;;;;40.67;27.60;;;;;;;;;;5087943;28;20286;-73
2024/03/31 07:08:17;;;;;;;42.03;29.13;;;;;;;;;;5085778;28;20690;-74
2024/03/31 07:10:42;;;;;;;40.83;28.52;;;;;;;;;;5089297;28;20188;-73
2024/03/31 07:13:08;;;;;;;38.90;27.30;;;;;;;;;;5081069;28;20633;-73
2024/03/31 07:15:33;;;;;;;40.40;28.48;;;;;;;;;;5089436;28;20195;-73
2024/03/31 07:18:07;;;;;;;42.33;28.98;;;;;;;;;;5087508;28;20192;-74
2024/03/31 07:20:34;;;;;;;43.63;29.08;;;;;;;;;;5082636;28;20713;-73
2024/03/31 07:23:05;;;;;;;46.05;30.88;;;;;;;;;;5089455;28;20184;-73
2024/03/31 07:25:37;;;;;;;40.92;29.58;;;;;;;;;;5075236;28;20725;-73
2024/03/31 07:28:03;;;;;;;41.92;29.02;;;;;;;;;;5087515;28;20587;-73
2024/03/31 07:30:29;;;;;;;46.03;31.45;;;;;;;;;;5082248;28;20200;-73
2024/03/31 07:32:54;;;;;;;47.97;33.58;;;;;;;;;;5082165;28;20187;-74
2024/03/31 07:35:20;;;;;;;49.80;32.72;;;;;;;;;;5070335;28;20624;-73
2024/03/31 07:37:45;;;;;;;47.40;32.33;;;;;;;;;;5078950;28;20363;-73
2024/03/31 07:40:11;;;;;;;49.05;33.50;;;;;;;;;;5076656;28;20259;-73
2024/03/31 07:42:36;;;;;;;51.35;34.95;;;;;;;;;;5078806;28;20215;-73
2024/03/31 07:45:03;;;;;;;51.92;34.60;;;;;;;;;;5070993;28;20212;-73
2024/03/31 07:47:29;;;;;;;49.45;34.00;;;;;;;;;;5077537;28;20399;-73
2024/03/31 07:49:54;;;;;;;48.70;33.72;;;;;;;;;;5082776;28;20180;-73
2024/03/31 07:52:20;;;;;;;51.15;33.13;;;;;;;;;;5081743;28;20718;-73
2024/03/31 07:54:45;;;;;;;47.75;34.03;;;;;;;;;;5084585;28;20188;-74
2024/03/31 07:57:10;;;;;;;53.83;34.90;;;;;;;;;;5087237;28;20199;-73
2024/03/31 07:59:36;;;;;;;48.40;34.45;;;;;;;;;;5088444;28;20195;-73
2024/03/31 08:02:01;;;;;;;49.00;34.15;;;;;;;;;;5075720;28;20235;-73
2024/03/31 08:04:27;;;;;;;50.33;34.58;;;;;;;;;;5072198;28;20240;-74
2024/03/31 08:06:52;;;;;;;48.10;33.38;;;;;;;;;;5069736;28;20532;-73
2024/03/31 08:09:17;;;;;;;46.20;33.38;;;;;;;;;;5079759;28;20192;-74
2024/03/31 08:11:44;;;;;;;43.03;31.38;;;;;;;;;;5073585;28;20499;-73
2024/03/31 08:14:11;;;;;;;41.15;29.95;;;;;;;;;;5085573;28;20195;-73
2024/03/31 08:16:36;;;;;;;43.45;30.55;;;;;;;;;;5082052;28;20196;-74
2024/03/31 08:19:02;;;;;;;43.53;31.38;;;;;;;;;;5087705;28;20203;-74
2024/03/31 08:21:28;;;;;;;41.78;30.02;;;;;;;;;;5090282;28;20698;-74
2024/03/31 08:23:53;;;;;;;37.78;29.25;;;;;;;;;;5086236;28;20550;-74
2024/03/31 08:26:19;;;;;;;40.13;27.65;;;;;;;;;;5083301;28;20183;-74
2024/03/31 08:28:44;;;;;;;33.40;26.13;;;;;;;;;;5084994;28;20248;-74
2024/03/31 08:31:09;;;;;;;37.65;26.92;;;;;;;;;;5065023;28;20181;-74
2024/03/31 08:33:35;;;;;;;38.00;26.70;;;;;;;;;;5082202;28;20184;-74
2024/03/31 08:36:00;;;;;;;32.38;25.60;;;;;;;;;;5075659;28;20298;-74
2024/03/31 08:38:26;;;;;;;35.53;23.90;;;;;;;;;;5088069;28;20224;-74
2024/03/31 08:40:59;;;;;;;31.10;25.08;;;;;;;;;;5088763;28;20249;-74
2024/03/31 08:43:27;;;;;;;31.55;24.48;;;;;;;;;;5088160;28;20188;-74
2024/03/31 08:45:53;;;;;;;30.25;23.50;;;;;;;;;;5088887;28;20191;-74
2024/03/31 08:48:20;;;;;;;32.33;24.20;;;;;;;;;;5074343;28;20180;-72
2024/03/31 08:50:49;;;;;;;33.92;24.08;;;;;;;;;;5088508;28;20192;-72
2024/03/31 08:53:16;;;;;;;29.90;23.85;;;;;;;;;;5080383;28;20245;-72
2024/03/31 08:55:41;;;;;;;30.08;23.50;;;;;;;;;;5084310;28;20249;-72
2024/03/31 08:58:08;;;;;;;28.80;21.63;;;;;;;;;;5076602;28;20613;-73
2024/03/31 09:00:36;;;;;;;27.20;21.20;;;;;;;;;;5080532;28;20660;-73
2024/03/31 09:03:03;;;;;;;28.15;22.45;;;;;;;;;;5084409;28;20188;-74
2024/03/31 09:05:30;;;;;;;28.17;22.67;;;;;;;;;;5087075;28;20835;-72
2024/03/31 09:07:55;;;;;;;29.23;22.20;;;;;;;;;;5088032;28;20191;-72
2024/03/31 09:10:22;;;;;;;29.70;21.08;;;;;;;;;;5089321;28;20184;-72
2024/03/31 09:12:48;;;;;;;26.77;21.67;;;;;;;;;;5082509;28;20181;-72
2024/03/31 09:15:15;;;;;;;30.42;22.70;;;;;;;;;;5087647;28;20199;-72
2024/03/31 09:17:40;;;;;;;27.13;21.13;;;;;;;;;;5069194;28;20216;-73
2024/03/31 09:20:06;;;;;;;32.90;22.63;;;;;;;;;;5066921;28;20271;-72
2024/03/31 09:22:33;;;;;;;27.08;21.55;;;;;;;;;;5086125;28;20299;-73
2024/03/31 09:24:59;;;;;;;25.70;20.63;;;;;;;;;;5085780;28;20192;-73
2024/03/31 09:27:25;;;;;;;28.83;21.58;;;;;;;;;;5074071;28;20553;-73
2024/03/31 09:29:50;;;;;;;25.92;21.38;;;;;;;;;;5070376;28;20245;-73
2024/03/31 09:32:16;;;;;;;26.42;20.13;;;;;;;;;;5086863;28;20196;-73
2024/03/31 09:34:46;;;;;;;24.58;19.60;;;;;;;;;;5074633;28;20271;-72
2024/03/31 09:37:12;;;;;;;24.60;19.50;;;;;;;;;;5076383;28;20266;-73
2024/03/31 09:39:38;;;;;;;24.92;18.45;;;;;;;;;;5083327;28;20215;-73
2024/03/31 09:42:06;;;;;;;23.80;18.67;;;;;;;;;;5069210;28;20232;-73
2024/03/31 09:44:32;;;;;;;24.65;19.73;;;;;;;;;;5074234;28;20180;-72
2024/03/31 09:46:58;;;;;;;26.33;19.75;;;;;;;;;;5084835;28;20180;-73
2024/03/31 09:49:28;;;;;;;24.33;19.17;;;;;;;;;;5076114;28;20180;-73
2024/03/31 09:51:58;;;;;;;28.25;19.38;;;;;;;;;;5081713;28;20207;-73
2024/03/31 09:54:33;;;;;;;25.15;19.90;;;;;;;;;;5086669;28;20185;-73
2024/03/31 09:57:13;;;;;;;24.52;18.88;;;;;;;;;;5077242;28;20184;-72
2024/03/31 09:59:47;;;;;;;24.95;20.65;;;;;;;;;;5082835;28;20199;-72
2024/03/31 10:02:14;;;;;;;24.10;19.38;;;;;;;;;;5080026;28;20203;-72
2024/03/31 10:04:51;;;;;;;22.85;17.58;;;;;;;;;;5082353;28;20188;-73
2024/03/31 10:07:18;;;;;;;20.50;15.43;;;;;;;;;;5083657;28;20203;-73
2024/03/31 10:09:44;;;;;;;21.90;15.65;;;;;;;;;;5086202;28;20628;-73
2024/03/31 10:12:10;;;;;;;18.83;14.13;;;;;;;;;;5076259;28;20207;-73
2024/03/31 10:14:37;;;;;;;16.45;12.00;;;;;;;;;;5082880;28;20185;-74
2024/03/31 10:17:03;;;;;;;20.48;12.27;;;;;;;;;;5084377;28;20233;-73
2024/03/31 10:19:31;;;;;;;20.10;12.77;;;;;;;;;;5078953;28;20216;-73
2024/03/31 10:21:58;;;;;;;17.40;13.70;;;;;;;;;;5081394;28;20213;-73
2024/03/31 10:24:25;;;;;;;18.73;13.60;;;;;;;;;;5082187;28;20188;-72
2024/03/31 10:26:53;;;;;;;21.98;14.38;;;;;;;;;;5092476;28;20199;-73
2024/03/31 10:29:20;;;;;;;20.52;13.35;;;;;;;;;;5086121;28;20189;-73
2024/03/31 10:31:45;;;;;;;20.98;13.27;;;;;;;;;;5091725;28;20598;-73
2024/03/31 10:34:12;;;;;;;19.50;13.13;;;;;;;;;;5087113;28;20270;-73
2024/03/31 10:36:39;;;;;;;20.20;13.50;;;;;;;;;;5084325;28;20181;-73
2024/03/31 10:39:06;;;;;;;18.35;13.30;;;;;;;;;;5081358;28;20341;-73
2024/03/31 10:41:31;;;;;;;17.33;12.80;;;;;;;;;;5068944;28;20205;-72
2024/03/31 10:43:57;;;;;;;17.83;11.07;;;;;;;;;;5081080;28;20199;-73
2024/03/31 10:46:22;;;;;;;18.20;10.48;;;;;;;;;;5088889;28;20196;-72
2024/03/31 10:48:55;;;;;;;14.88;11.10;;;;;;;;;;5078296;28;20195;-72
2024/03/31 10:51:23;;;;;;;17.83;11.55;;;;;;;;;;5083473;28;20569;-72
2024/03/31 10:53:49;;;;;;;18.73;11.90;;;;;;;;;;5068191;28;20267;-72
2024/03/31 10:56:14;;;;;;;16.75;10.60;;;;;;;;;;5083988;28;20318;-71
2024/03/31 10:58:40;;;;;;;15.48;10.57;;;;;;;;;;5083065;28;20708;-71
2024/03/31 11:01:05;;;;;;;18.80;11.85;;;;;;;;;;5090610;28;20632;-72
2024/03/31 11:03:31;;;;;;;20.17;10.50;;;;;;;;;;5087285;28;20568;-72
2024/03/31 11:06:03;;;;;;;17.45;10.60;;;;;;;;;;5079590;28;20207;-72
2024/03/31 11:08:29;;;;;;;19.80;10.70;;;;;;;;;;5078311;28;20691;-71
2024/03/31 11:10:55;;;;;;;16.92;10.77;;;;;;;;;;5071682;28;20193;-72
2024/03/31 11:13:20;;;;;;;15.35;10.10;;;;;;;;;;5084480;28;20678;-72
2024/03/31 11:15:46;;;;;;;16.95;10.38;;;;;;;;;;5078202;28;20185;-71
2024/03/31 11:18:12;;;;;;;15.32;9.45;;;;;;;;;;5091658;28;20203;-73
2024/03/31 11:20:42;;;;;;;14.10;9.73;;;;;;;;;;5087086;28;20188;-72
2024/03/31 11:23:12;;;;;;;15.85;8.98;;;;;;;;;;5078401;28;20207;-71
2024/03/31 11:25:39;;;;;;;14.65;9.32;;;;;;;;;;5077930;28;20689;-71
2024/03/31 11:28:06;;;;;;;16.92;9.05;;;;;;;;;;5081731;28;20270;-72
2024/03/31 11:30:32;;;;;;;20.75;10.23;;;;;;;;;;5087040;28;20199;-72
2024/03/31 11:33:03;;;;;;;17.45;10.13;;;;;;;;;;5082102;28;20181;-72
2024/03/31 11:35:29;;;;;;;17.13;9.70;;;;;;;;;;5075923;28;20567;-72
2024/03/31 11:38:16;;;;;;;18.55;10.63;;;;;;;;;;5082256;28;20301;-72
2024/03/31 11:40:42;;;;;;;21.80;11.52;;;;;;;;;;5079563;28;20204;-73
2024/03/31 11:43:08;;;;;;;17.23;11.63;;;;;;;;;;5085235;28;20565;-72
2024/03/31 11:45:34;;;;;;;15.88;10.95;;;;;;;;;;5085215;28;20225;-73
2024/03/31 11:48:04;;;;;;;15.75;10.35;;;;;;;;;;5091714;28;20184;-73
2024/03/31 11:50:31;;;;;;;14.88;9.48;;;;;;;;;;5071985;28;20189;-74
2024/03/31 11:52:56;;;;;;;21.40;12.50;;;;;;;;;;5078687;28;20199;-74
2024/03/31 11:55:22;;;;;;;20.58;12.95;;;;;;;;;;5075735;28;20186;-73
2024/03/31 11:57:48;;;;;;;19.80;12.57;;;;;;;;;;5076587;28;20193;-74
2024/03/31 12:00:17;;;;;;;20.45;12.27;;;;;;;;;;5079920;28;20550;-74
2024/03/31 12:02:43;;;;;;;15.35;10.73;;;;;;;;;;5069388;28;20212;-75
2024/03/31 12:05:18;;;;;;;15.18;10.32;;;;;;;;;;5076539;28;20192;-74
2024/03/31 12:07:46;;;;;;;18.70;11.43;;;;;;;;;;5073981;28;20298;-74
2024/03/31 12:10:11;;;;;;;18.83;12.18;;;;;;;;;;5084683;28;20188;-73
2024/03/31 12:12:38;;;;;;;21.52;12.23;;;;;;;;;;5082260;28;20199;-74
2024/03/31 12:15:04;;;;;;;15.25;11.10;;;;;;;;;;5076486;28;20705;-73
2024/03/31 12:17:29;;;;;;;21.00;10.90;;;;;;;;;;5057802;28;20188;-75
2024/03/31 12:19:55;;;;;;;17.55;11.02;;;;;;;;;;5083571;28;20220;-73
2024/03/31 12:22:22;;;;;;;20.55;11.60;;;;;;;;;;5080693;28;20212;-73
2024/03/31 12:24:47;;;;;;;18.30;11.48;;;;;;;;;;5083275;28;20183;-73
2024/03/31 12:27:13;;;;;;;16.40;11.68;;;;;;;;;;5081051;28;20825;-74
2024/03/31 12:29:42;;;;;;;18.20;11.75;;;;;;;;;;5080717;28;20192;-73
2024/03/31 12:32:08;;;;;;;15.43;11.38;;;;;;;;;;5086013;28;20184;-74
2024/03/31 12:34:36;;;;;;;17.40;10.20;;;;;;;;;;5085989;28;20192;-73
2024/03/31 12:37:01;;;;;;;17.52;10.10;;;;;;;;;;5086522;28;20610;-74
2024/03/31 12:39:30;;;;;;;15.82;10.10;;;;;;;;;;5082466;28;20263;-74
2024/03/31 12:41:56;;;;;;;16.88;10.10;;;;;;;;;;5083587;28;20236;-74
2024/03/31 12:44:21;;;;;;;19.20;10.30;;;;;;;;;;5089656;28;20226;-74
2024/03/31 12:46:47;;;;;;;16.45;9.80;;;;;;;;;;5071814;28;20300;-74
2024/03/31 12:49:13;;;;;;;15.35;10.45;;;;;;;;;;5085818;28;20635;-74
2024/03/31 12:51:39;;;;;;;17.40;9.30;;;;;;;;;;5084156;28;20253;-74
2024/03/31 12:54:07;;;;;;;19.88;10.25;;;;;;;;;;5089606;28;20184;-73
2024/03/31 12:56:32;;;;;;;13.68;9.02;;;;;;;;;;5077042;28;20184;-74
2024/03/31 12:58:58;;;;;;;15.32;10.30;;;;;;;;;;5078037;28;20245;-73
2024/03/31 13:01:23;;;;;;;14.40;10.07;;;;;;;;;;5084135;28;20683;-73
2024/03/31 13:03:50;;;;;;;17.67;10.52;;;;;;;;;;5080205;28;20600;-73
2024/03/31 13:06:16;;;;;;;18.30;9.35;;;;;;;;;;5079333;28;20220;-73
2024/03/31 13:08:45;;;;;;;14.77;8.60;;;;;;;;;;5081203;28;20200;-73
2024/03/31 13:11:12;;;;;;;16.02;9.50;;;;;;;;;;5080175;28;20741;-73
2024/03/31 13:13:38;;;;;;;16.02;10.48;;;;;;;;;;5084762;28;20241;-73
2024/03/31 13:16:04;;;;;;;16.35;10.55;;;;;;;;;;5084122;28;20901;-72
2024/03/31 13:18:29;;;;;;;15.98;9.80;;;;;;;;;;5076238;28;20662;-72
2024/03/31 13:20:56;;;;;;;13.13;9.88;;;;;;;;;;5074237;28;20189;-72
2024/03/31 13:23:23;;;;;;;16.35;9.07;;;;;;;;;;5080380;28;20188;-73
2024/03/31 13:25:49;;;;;;;22.60;10.13;;;;;;;;;;5086619;28;20192;-72
2024/03/31 13:28:14;;;;;;;13.45;9.48;;;;;;;;;;5088887;28;20587;-72
2024/03/31 13:30:40;;;;;;;16.00;10.18;;;;;;;;;;5072679;28;20645;-72
2024/03/31 13:33:05;;;;;;;14.60;9.57;;;;;;;;;;5101206;28;20568;-73
2024/03/31 13:35:31;;;;;;;16.13;8.82;;;;;;;;;;5070365;28;20195;-73
2024/03/31 13:37:57;;;;;;;15.02;9.13;;;;;;;;;;5074236;28;20574;-73
2024/03/31 13:40:23;;;;;;;15.90;9.23;;;;;;;;;;5070945;28;20185;-74
2024/03/31 13:42:48;;;;;;;17.08;8.88;;;;;;;;;;5073106;28;20502;-73
2024/03/31 13:45:14;;;;;;;16.15;9.93;;;;;;;;;;5085441;28;20205;-72
2024/03/31 13:47:40;;;;;;;17.50;9.27;;;;;;;;;;5083218;28;20525;-73
2024/03/31 13:50:06;;;;;;;13.63;8.52;;;;;;;;;;5080611;28;20499;-72
2024/03/31 13:52:31;;;;;;;12.98;8.68;;;;;;;;;;5068979;28;20206;-73
2024/03/31 13:54:57;;;;;;;15.55;9.55;;;;;;;;;;5099039;28;20553;-73
2024/03/31 13:57:22;;;;;;;15.85;9.02;;;;;;;;;;5086542;28;20231;-73
2024/03/31 13:59:48;;;;;;;18.15;9.05;;;;;;;;;;5090938;28;20196;-74
2024/03/31 14:02:14;;;;;;;13.05;8.18;;;;;;;;;;5079218;28;20555;-73
2024/03/31 14:04:39;;;;;;;11.65;7.93;;;;;;;;;;5072890;28;20268;-73
2024/03/31 14:07:05;;;;;;;16.15;8.30;;;;;;;;;;5088612;28;20184;-73
2024/03/31 14:09:30;;;;;;;13.23;7.55;;;;;;;;;;5088779;28;20609;-73
2024/03/31 14:11:56;;;;;;;15.10;7.68;;;;;;;;;;5071253;28;20181;-73
2024/03/31 14:14:21;;;;;;;15.15;7.32;;;;;;;;;;5075196;28;20194;-73